This is the latest recevied weather packets stored in our database for station/object OM0AGP-15. If no packets are shown the sender has not sent any weather packets the latest 10 day(s).
| Time | Temp. | Humidity | Pressure | Rain* | Wind** | Luminosity | Snow |
|---|---|---|---|---|---|---|---|
| 1777685484 | 6.11° C | 69% | 1023.7 hPa | - | - | - | - |
| 1777684584 | 6.67° C | 68% | 1023.7 hPa | - | - | - | - |
| 1777683684 | 7.22° C | 64% | 1023.7 hPa | - | - | - | - |
| 1777682784 | 7.22° C | 63% | 1023.9 hPa | - | - | - | - |
| 1777681884 | 7.22° C | 64% | 1023.9 hPa | - | - | - | - |
| 1777680984 | 7.22° C | 66% | 1023.9 hPa | - | - | - | - |
| 1777680084 | 6.67° C | 67% | 1023.9 hPa | - | - | - | - |
| 1777679184 | 6.67° C | 68% | 1023.9 hPa | - | - | - | - |
| 1777678284 | 6.67° C | 69% | 1024 hPa | - | - | - | - |
| 1777677384 | 6.11° C | 69% | 1024 hPa | - | - | - | - |
| 1777676484 | 6.67° C | 69% | 1024 hPa | - | - | - | - |
| 1777675584 | 6.11° C | 68% | 1024 hPa | - | - | - | - |
| 1777674684 | 6.67° C | 67% | 1023.9 hPa | - | - | - | - |
| 1777673784 | 6.67° C | 65% | 1023.9 hPa | - | - | - | - |
| 1777672884 | 7.22° C | 62% | 1023.9 hPa | - | - | - | - |
| 1777671984 | 7.78° C | 60% | 1023.9 hPa | - | - | - | - |
| 1777671083 | 8.33° C | 59% | 1023.8 hPa | - | - | - | - |
| 1777670183 | 8.33° C | 59% | 1023.8 hPa | - | - | - | - |
| 1777669283 | 8.89° C | 57% | 1023.7 hPa | - | - | - | - |
| 1777668383 | 8.89° C | 57% | 1023.8 hPa | - | - | - | - |
| 1777667483 | 9.44° C | 55% | 1023.8 hPa | - | - | - | - |
| 1777666583 | 11.11° C | 50% | 1023.7 hPa | - | - | - | - |
| 1777665683 | 10.56° C | 52% | 1023.7 hPa | - | - | - | - |
| 1777664783 | 11.11° C | 49% | 1023.7 hPa | - | - | - | - |
| 1777663883 | 11.11° C | 48% | 1023.6 hPa | - | - | - | - |
* Rain since midnight (hover to see other rain measurements)
** Current wind speed in m/s (hover to see current wind gust speed)